sensor_id;sensor_type;location;lat;lon;timestamp;P1;durP1;ratioP1;P2;durP2;ratioP2
18162;SDS011;9206;50.994;4.538;2023-03-07T00:00:01;6.33;;;4.23;;
18162;SDS011;9206;50.994;4.538;2023-03-07T00:02:51;5.33;;;4.17;;
18162;SDS011;9206;50.994;4.538;2023-03-07T00:05:40;4.13;;;3.73;;
18162;SDS011;9206;50.994;4.538;2023-03-07T00:08:28;5.77;;;3.90;;
18162;SDS011;9206;50.994;4.538;2023-03-07T00:11:16;3.87;;;3.57;;
18162;SDS011;9206;50.994;4.538;2023-03-07T00:14:07;5.50;;;4.20;;
18162;SDS011;9206;50.994;4.538;2023-03-07T00:16:54;5.63;;;3.80;;
18162;SDS011;9206;50.994;4.538;2023-03-07T00:19:45;4.07;;;3.77;;
18162;SDS011;9206;50.994;4.538;2023-03-07T00:22:32;4.50;;;3.90;;
18162;SDS011;9206;50.994;4.538;2023-03-07T00:25:25;5.17;;;3.50;;
18162;SDS011;9206;50.994;4.538;2023-03-07T00:31:05;4.50;;;3.93;;
18162;SDS011;9206;50.994;4.538;2023-03-07T00:33:54;4.73;;;3.70;;
18162;SDS011;9206;50.994;4.538;2023-03-07T00:39:37;6.70;;;3.93;;
18162;SDS011;9206;50.994;4.538;2023-03-07T00:42:28;7.63;;;4.37;;
18162;SDS011;9206;50.994;4.538;2023-03-07T00:45:18;6.80;;;4.20;;
18162;SDS011;9206;50.994;4.538;2023-03-07T00:48:07;5.73;;;4.17;;
18162;SDS011;9206;50.994;4.538;2023-03-07T00:53:50;7.17;;;4.60;;
18162;SDS011;9206;50.994;4.538;2023-03-07T00:59:28;5.23;;;4.67;;
18162;SDS011;9206;50.994;4.538;2023-03-07T01:02:15;7.30;;;4.67;;
18162;SDS011;9206;50.994;4.538;2023-03-07T01:05:05;6.90;;;4.80;;
18162;SDS011;9206;50.994;4.538;2023-03-07T01:07:55;7.67;;;5.03;;
18162;SDS011;9206;50.994;4.538;2023-03-07T01:10:42;8.00;;;5.33;;
18162;SDS011;9206;50.994;4.538;2023-03-07T01:13:30;12.60;;;6.63;;
18162;SDS011;9206;50.994;4.538;2023-03-07T01:16:22;7.20;;;6.47;;
18162;SDS011;9206;50.994;4.538;2023-03-07T01:22:26;14.40;;;8.70;;
18162;SDS011;9206;50.994;4.538;2023-03-07T01:28:11;13.00;;;10.13;;
18162;SDS011;9206;50.994;4.538;2023-03-07T01:31:00;12.87;;;10.23;;
18162;SDS011;9206;50.994;4.538;2023-03-07T01:33:52;13.40;;;10.20;;
18162;SDS011;9206;50.994;4.538;2023-03-07T01:36:40;12.50;;;10.53;;
18162;SDS011;9206;50.994;4.538;2023-03-07T01:39:32;14.97;;;10.87;;
18162;SDS011;9206;50.994;4.538;2023-03-07T01:42:28;17.07;;;10.47;;
18162;SDS011;9206;50.994;4.538;2023-03-07T01:48:43;13.07;;;10.37;;
18162;SDS011;9206;50.994;4.538;2023-03-07T01:51:32;12.73;;;9.80;;
18162;SDS011;9206;50.994;4.538;2023-03-07T01:54:21;12.40;;;9.60;;
18162;SDS011;9206;50.994;4.538;2023-03-07T01:57:12;11.37;;;10.10;;
18162;SDS011;9206;50.994;4.538;2023-03-07T02:00:00;13.93;;;9.63;;
18162;SDS011;9206;50.994;4.538;2023-03-07T02:02:56;15.63;;;10.23;;
18162;SDS011;9206;50.994;4.538;2023-03-07T02:05:50;13.10;;;10.00;;
18162;SDS011;9206;50.994;4.538;2023-03-07T02:08:42;15.83;;;11.20;;
18162;SDS011;9206;50.994;4.538;2023-03-07T02:11:34;20.17;;;10.13;;
18162;SDS011;9206;50.994;4.538;2023-03-07T02:14:25;16.40;;;10.87;;
18162;SDS011;9206;50.994;4.538;2023-03-07T02:17:21;11.40;;;10.00;;
18162;SDS011;9206;50.994;4.538;2023-03-07T02:20:21;14.63;;;10.77;;
18162;SDS011;9206;50.994;4.538;2023-03-07T02:26:20;14.23;;;10.93;;
18162;SDS011;9206;50.994;4.538;2023-03-07T02:32:05;16.43;;;11.30;;
18162;SDS011;9206;50.994;4.538;2023-03-07T02:34:59;16.03;;;11.80;;
18162;SDS011;9206;50.994;4.538;2023-03-07T02:37:50;17.40;;;11.03;;
18162;SDS011;9206;50.994;4.538;2023-03-07T02:40:46;13.03;;;11.00;;
18162;SDS011;9206;50.994;4.538;2023-03-07T02:43:34;15.33;;;11.90;;
18162;SDS011;9206;50.994;4.538;2023-03-07T02:46:23;19.17;;;12.50;;
18162;SDS011;9206;50.994;4.538;2023-03-07T02:49:11;14.87;;;11.63;;
18162;SDS011;9206;50.994;4.538;2023-03-07T02:51:59;17.30;;;11.70;;
18162;SDS011;9206;50.994;4.538;2023-03-07T02:54:49;13.17;;;11.77;;
18162;SDS011;9206;50.994;4.538;2023-03-07T02:57:36;19.60;;;11.73;;
18162;SDS011;9206;50.994;4.538;2023-03-07T03:00:30;16.63;;;10.73;;
18162;SDS011;9206;50.994;4.538;2023-03-07T03:03:20;16.97;;;10.83;;
18162;SDS011;9206;50.994;4.538;2023-03-07T03:06:14;13.77;;;11.03;;
18162;SDS011;9206;50.994;4.538;2023-03-07T03:09:07;19.03;;;12.13;;
18162;SDS011;9206;50.994;4.538;2023-03-07T03:11:56;13.33;;;11.30;;
18162;SDS011;9206;50.994;4.538;2023-03-07T03:14:43;15.53;;;10.80;;
18162;SDS011;9206;50.994;4.538;2023-03-07T03:17:30;14.67;;;11.43;;
18162;SDS011;9206;50.994;4.538;2023-03-07T03:20:19;18.07;;;10.80;;
18162;SDS011;9206;50.994;4.538;2023-03-07T03:23:17;14.57;;;11.27;;
18162;SDS011;9206;50.994;4.538;2023-03-07T03:26:07;15.07;;;12.00;;
18162;SDS011;9206;50.994;4.538;2023-03-07T03:28:57;17.40;;;11.37;;
18162;SDS011;9206;50.994;4.538;2023-03-07T03:31:45;14.40;;;11.53;;
18162;SDS011;9206;50.994;4.538;2023-03-07T03:34:33;14.13;;;11.20;;
18162;SDS011;9206;50.994;4.538;2023-03-07T03:37:23;28.27;;;12.83;;
18162;SDS011;9206;50.994;4.538;2023-03-07T03:43:07;18.60;;;11.97;;
18162;SDS011;9206;50.994;4.538;2023-03-07T03:45:55;15.50;;;11.80;;
18162;SDS011;9206;50.994;4.538;2023-03-07T03:48:49;17.27;;;11.73;;
18162;SDS011;9206;50.994;4.538;2023-03-07T03:51:51;15.33;;;11.60;;
18162;SDS011;9206;50.994;4.538;2023-03-07T03:54:42;12.63;;;11.40;;
18162;SDS011;9206;50.994;4.538;2023-03-07T04:00:19;13.17;;;10.23;;
18162;SDS011;9206;50.994;4.538;2023-03-07T04:03:07;14.53;;;9.93;;
18162;SDS011;9206;50.994;4.538;2023-03-07T04:06:00;14.07;;;11.93;;
18162;SDS011;9206;50.994;4.538;2023-03-07T04:08:55;15.23;;;11.17;;
18162;SDS011;9206;50.994;4.538;2023-03-07T04:11:48;14.40;;;11.13;;
18162;SDS011;9206;50.994;4.538;2023-03-07T04:14:41;12.63;;;11.20;;
18162;SDS011;9206;50.994;4.538;2023-03-07T04:17:29;15.50;;;11.13;;
18162;SDS011;9206;50.994;4.538;2023-03-07T04:20:18;16.13;;;11.53;;
18162;SDS011;9206;50.994;4.538;2023-03-07T04:25:57;20.03;;;12.80;;
18162;SDS011;9206;50.994;4.538;2023-03-07T04:28:49;15.10;;;11.47;;
18162;SDS011;9206;50.994;4.538;2023-03-07T04:31:42;15.80;;;10.30;;
18162;SDS011;9206;50.994;4.538;2023-03-07T04:34:29;15.40;;;11.97;;
18162;SDS011;9206;50.994;4.538;2023-03-07T04:37:16;16.30;;;11.73;;
18162;SDS011;9206;50.994;4.538;2023-03-07T04:40:05;16.47;;;11.60;;
18162;SDS011;9206;50.994;4.538;2023-03-07T04:42:54;16.23;;;11.77;;
18162;SDS011;9206;50.994;4.538;2023-03-07T04:45:51;14.87;;;11.77;;
18162;SDS011;9206;50.994;4.538;2023-03-07T04:51:30;16.63;;;11.50;;
18162;SDS011;9206;50.994;4.538;2023-03-07T04:54:19;16.73;;;11.53;;
18162;SDS011;9206;50.994;4.538;2023-03-07T04:57:06;13.47;;;11.30;;
18162;SDS011;9206;50.994;4.538;2023-03-07T04:59:54;14.97;;;11.50;;
18162;SDS011;9206;50.994;4.538;2023-03-07T05:02:45;14.77;;;10.83;;
18162;SDS011;9206;50.994;4.538;2023-03-07T05:05:33;21.67;;;10.73;;
18162;SDS011;9206;50.994;4.538;2023-03-07T05:08:23;14.70;;;11.17;;
18162;SDS011;9206;50.994;4.538;2023-03-07T05:11:12;12.93;;;10.83;;
18162;SDS011;9206;50.994;4.538;2023-03-07T05:14:05;13.73;;;10.43;;
18162;SDS011;9206;50.994;4.538;2023-03-07T05:16:54;11.80;;;10.60;;
18162;SDS011;9206;50.994;4.538;2023-03-07T05:19:43;11.77;;;9.53;;
18162;SDS011;9206;50.994;4.538;2023-03-07T05:22:30;14.83;;;9.83;;
18162;SDS011;9206;50.994;4.538;2023-03-07T05:25:21;11.30;;;10.10;;
18162;SDS011;9206;50.994;4.538;2023-03-07T05:28:16;15.23;;;10.90;;
18162;SDS011;9206;50.994;4.538;2023-03-07T05:31:04;11.37;;;10.03;;
18162;SDS011;9206;50.994;4.538;2023-03-07T05:33:58;13.73;;;11.13;;
18162;SDS011;9206;50.994;4.538;2023-03-07T05:36:47;18.47;;;11.20;;
18162;SDS011;9206;50.994;4.538;2023-03-07T05:39:36;18.50;;;11.27;;
18162;SDS011;9206;50.994;4.538;2023-03-07T05:42:27;12.00;;;10.60;;
18162;SDS011;9206;50.994;4.538;2023-03-07T05:45:16;12.23;;;10.93;;
18162;SDS011;9206;50.994;4.538;2023-03-07T05:48:05;11.43;;;10.23;;
18162;SDS011;9206;50.994;4.538;2023-03-07T05:50:53;16.17;;;11.47;;
18162;SDS011;9206;50.994;4.538;2023-03-07T05:53:47;17.37;;;11.37;;
18162;SDS011;9206;50.994;4.538;2023-03-07T05:56:36;11.17;;;9.83;;
18162;SDS011;9206;50.994;4.538;2023-03-07T05:59:23;14.17;;;10.23;;
18162;SDS011;9206;50.994;4.538;2023-03-07T06:02:14;16.00;;;9.70;;
18162;SDS011;9206;50.994;4.538;2023-03-07T06:05:02;9.50;;;8.40;;
18162;SDS011;9206;50.994;4.538;2023-03-07T06:07:50;11.60;;;9.13;;
18162;SDS011;9206;50.994;4.538;2023-03-07T06:16:20;11.50;;;10.27;;
18162;SDS011;9206;50.994;4.538;2023-03-07T06:19:10;10.80;;;9.67;;
18162;SDS011;9206;50.994;4.538;2023-03-07T06:22:04;12.20;;;10.20;;
18162;SDS011;9206;50.994;4.538;2023-03-07T06:24:53;13.60;;;10.47;;
18162;SDS011;9206;50.994;4.538;2023-03-07T06:30:36;14.80;;;10.23;;
18162;SDS011;9206;50.994;4.538;2023-03-07T06:33:25;14.67;;;10.50;;
18162;SDS011;9206;50.994;4.538;2023-03-07T06:36:13;11.87;;;9.67;;
18162;SDS011;9206;50.994;4.538;2023-03-07T06:39:02;15.40;;;11.10;;
18162;SDS011;9206;50.994;4.538;2023-03-07T06:41:53;12.40;;;10.90;;
18162;SDS011;9206;50.994;4.538;2023-03-07T06:44:42;12.00;;;10.30;;
18162;SDS011;9206;50.994;4.538;2023-03-07T06:47:30;16.43;;;11.07;;
18162;SDS011;9206;50.994;4.538;2023-03-07T06:50:24;15.20;;;10.07;;
18162;SDS011;9206;50.994;4.538;2023-03-07T06:53:12;13.37;;;9.97;;
18162;SDS011;9206;50.994;4.538;2023-03-07T06:56:05;13.87;;;9.70;;
18162;SDS011;9206;50.994;4.538;2023-03-07T06:58:56;13.57;;;10.93;;
18162;SDS011;9206;50.994;4.538;2023-03-07T07:04:41;12.17;;;9.90;;
18162;SDS011;9206;50.994;4.538;2023-03-07T07:07:30;13.20;;;10.77;;
18162;SDS011;9206;50.994;4.538;2023-03-07T07:10:25;17.23;;;11.17;;
18162;SDS011;9206;50.994;4.538;2023-03-07T07:13:14;17.30;;;10.93;;
18162;SDS011;9206;50.994;4.538;2023-03-07T07:16:05;13.80;;;10.30;;
18162;SDS011;9206;50.994;4.538;2023-03-07T07:19:07;17.33;;;10.70;;
18162;SDS011;9206;50.994;4.538;2023-03-07T07:21:59;14.17;;;10.17;;
18162;SDS011;9206;50.994;4.538;2023-03-07T07:24:54;14.67;;;10.73;;
18162;SDS011;9206;50.994;4.538;2023-03-07T07:27:42;11.23;;;10.10;;
18162;SDS011;9206;50.994;4.538;2023-03-07T07:30:32;13.83;;;10.33;;
18162;SDS011;9206;50.994;4.538;2023-03-07T07:33:20;16.97;;;11.20;;
18162;SDS011;9206;50.994;4.538;2023-03-07T07:36:15;14.30;;;10.30;;
18162;SDS011;9206;50.994;4.538;2023-03-07T07:39:06;14.30;;;10.27;;
18162;SDS011;9206;50.994;4.538;2023-03-07T07:41:55;12.47;;;9.87;;
18162;SDS011;9206;50.994;4.538;2023-03-07T07:45:02;15.27;;;10.10;;
18162;SDS011;9206;50.994;4.538;2023-03-07T07:47:53;11.50;;;10.17;;
18162;SDS011;9206;50.994;4.538;2023-03-07T07:54:00;14.40;;;10.90;;
18162;SDS011;9206;50.994;4.538;2023-03-07T07:56:49;10.70;;;9.63;;
18162;SDS011;9206;50.994;4.538;2023-03-07T07:59:36;14.57;;;10.77;;
18162;SDS011;9206;50.994;4.538;2023-03-07T08:02:24;12.13;;;10.13;;
18162;SDS011;9206;50.994;4.538;2023-03-07T08:05:14;12.27;;;9.50;;
18162;SDS011;9206;50.994;4.538;2023-03-07T08:08:05;13.97;;;9.83;;
18162;SDS011;9206;50.994;4.538;2023-03-07T08:10:54;16.90;;;10.43;;
18162;SDS011;9206;50.994;4.538;2023-03-07T08:13:41;16.93;;;11.03;;
18162;SDS011;9206;50.994;4.538;2023-03-07T08:16:30;12.33;;;10.00;;
18162;SDS011;9206;50.994;4.538;2023-03-07T08:19:18;13.20;;;10.00;;
18162;SDS011;9206;50.994;4.538;2023-03-07T08:22:07;15.13;;;10.20;;
18162;SDS011;9206;50.994;4.538;2023-03-07T08:27:46;13.70;;;10.83;;
18162;SDS011;9206;50.994;4.538;2023-03-07T08:30:37;10.70;;;9.57;;
18162;SDS011;9206;50.994;4.538;2023-03-07T08:33:25;10.53;;;9.43;;
18162;SDS011;9206;50.994;4.538;2023-03-07T08:36:22;10.03;;;9.03;;
18162;SDS011;9206;50.994;4.538;2023-03-07T08:39:10;9.93;;;8.13;;
18162;SDS011;9206;50.994;4.538;2023-03-07T08:41:59;9.40;;;8.13;;
18162;SDS011;9206;50.994;4.538;2023-03-07T08:44:48;8.43;;;7.50;;
18162;SDS011;9206;50.994;4.538;2023-03-07T08:47:37;12.33;;;8.20;;
18162;SDS011;9206;50.994;4.538;2023-03-07T08:50:27;9.00;;;8.20;;
18162;SDS011;9206;50.994;4.538;2023-03-07T08:53:15;8.83;;;7.87;;
18162;SDS011;9206;50.994;4.538;2023-03-07T08:56:05;8.97;;;8.17;;
18162;SDS011;9206;50.994;4.538;2023-03-07T08:58:53;9.00;;;8.10;;
18162;SDS011;9206;50.994;4.538;2023-03-07T09:01:42;8.10;;;7.50;;
18162;SDS011;9206;50.994;4.538;2023-03-07T09:04:29;8.13;;;7.37;;
18162;SDS011;9206;50.994;4.538;2023-03-07T09:07:17;8.50;;;7.87;;
18162;SDS011;9206;50.994;4.538;2023-03-07T09:13:02;10.00;;;8.50;;
18162;SDS011;9206;50.994;4.538;2023-03-07T09:15:56;8.03;;;7.43;;
18162;SDS011;9206;50.994;4.538;2023-03-07T09:18:45;8.80;;;8.00;;
18162;SDS011;9206;50.994;4.538;2023-03-07T09:21:38;8.83;;;7.93;;
18162;SDS011;9206;50.994;4.538;2023-03-07T09:24:32;8.60;;;7.80;;
18162;SDS011;9206;50.994;4.538;2023-03-07T09:27:21;9.10;;;7.17;;
18162;SDS011;9206;50.994;4.538;2023-03-07T09:30:11;9.90;;;7.87;;
18162;SDS011;9206;50.994;4.538;2023-03-07T09:38:42;7.13;;;6.53;;
18162;SDS011;9206;50.994;4.538;2023-03-07T09:44:43;4.97;;;4.60;;
18162;SDS011;9206;50.994;4.538;2023-03-07T09:47:57;4.40;;;4.20;;
18162;SDS011;9206;50.994;4.538;2023-03-07T09:51:12;5.47;;;4.97;;
18162;SDS011;9206;50.994;4.538;2023-03-07T09:54:08;5.10;;;4.70;;
18162;SDS011;9206;50.994;4.538;2023-03-07T09:57:10;5.00;;;4.70;;
18162;SDS011;9206;50.994;4.538;2023-03-07T10:00:03;4.90;;;4.50;;
18162;SDS011;9206;50.994;4.538;2023-03-07T10:06:07;4.53;;;4.23;;
18162;SDS011;9206;50.994;4.538;2023-03-07T10:09:01;4.43;;;4.03;;
18162;SDS011;9206;50.994;4.538;2023-03-07T10:15:10;4.83;;;4.50;;
18162;SDS011;9206;50.994;4.538;2023-03-07T10:21:22;4.80;;;4.50;;
18162;SDS011;9206;50.994;4.538;2023-03-07T10:24:31;4.10;;;3.90;;
18162;SDS011;9206;50.994;4.538;2023-03-07T10:27:32;4.20;;;4.00;;
18162;SDS011;9206;50.994;4.538;2023-03-07T10:30:28;4.50;;;4.20;;
18162;SDS011;9206;50.994;4.538;2023-03-07T10:33:19;4.43;;;4.23;;
18162;SDS011;9206;50.994;4.538;2023-03-07T10:36:11;5.93;;;4.47;;
18162;SDS011;9206;50.994;4.538;2023-03-07T10:39:05;5.60;;;5.17;;
18162;SDS011;9206;50.994;4.538;2023-03-07T10:42:07;5.93;;;4.50;;
18162;SDS011;9206;50.994;4.538;2023-03-07T10:45:02;8.10;;;4.40;;
18162;SDS011;9206;50.994;4.538;2023-03-07T10:47:52;4.57;;;4.27;;
18162;SDS011;9206;50.994;4.538;2023-03-07T10:50:42;4.40;;;4.10;;
18162;SDS011;9206;50.994;4.538;2023-03-07T10:53:37;4.07;;;3.80;;
18162;SDS011;9206;50.994;4.538;2023-03-07T10:56:31;3.77;;;3.53;;
18162;SDS011;9206;50.994;4.538;2023-03-07T10:59:29;3.70;;;3.50;;
18162;SDS011;9206;50.994;4.538;2023-03-07T11:05:18;3.90;;;3.70;;
18162;SDS011;9206;50.994;4.538;2023-03-07T11:08:20;3.53;;;3.33;;
18162;SDS011;9206;50.994;4.538;2023-03-07T11:11:20;3.00;;;2.90;;
18162;SDS011;9206;50.994;4.538;2023-03-07T11:14:13;3.87;;;3.57;;
18162;SDS011;9206;50.994;4.538;2023-03-07T11:17:21;8.50;;;7.90;;
18162;SDS011;9206;50.994;4.538;2023-03-07T11:20:24;9.07;;;8.47;;
18162;SDS011;9206;50.994;4.538;2023-03-07T11:23:16;8.27;;;7.67;;
18162;SDS011;9206;50.994;4.538;2023-03-07T11:26:20;7.77;;;7.27;;
18162;SDS011;9206;50.994;4.538;2023-03-07T11:29:15;5.73;;;5.20;;
18162;SDS011;9206;50.994;4.538;2023-03-07T11:32:10;4.43;;;4.23;;
18162;SDS011;9206;50.994;4.538;2023-03-07T11:35:11;4.70;;;4.07;;
18162;SDS011;9206;50.994;4.538;2023-03-07T11:38:04;4.00;;;3.70;;
18162;SDS011;9206;50.994;4.538;2023-03-07T11:41:06;3.90;;;3.70;;
18162;SDS011;9206;50.994;4.538;2023-03-07T11:47:20;3.63;;;3.43;;
18162;SDS011;9206;50.994;4.538;2023-03-07T11:50:22;3.37;;;3.27;;
18162;SDS011;9206;50.994;4.538;2023-03-07T11:56:18;3.90;;;3.70;;
18162;SDS011;9206;50.994;4.538;2023-03-07T12:02:47;14.10;;;12.77;;
18162;SDS011;9206;50.994;4.538;2023-03-07T12:09:19;16.07;;;14.40;;
18162;SDS011;9206;50.994;4.538;2023-03-07T12:12:31;16.10;;;14.50;;
18162;SDS011;9206;50.994;4.538;2023-03-07T12:15:38;15.30;;;13.50;;
18162;SDS011;9206;50.994;4.538;2023-03-07T12:22:00;13.50;;;12.23;;
18162;SDS011;9206;50.994;4.538;2023-03-07T12:25:17;13.40;;;12.10;;
18162;SDS011;9206;50.994;4.538;2023-03-07T12:31:21;13.73;;;12.43;;
18162;SDS011;9206;50.994;4.538;2023-03-07T12:34:19;13.20;;;12.00;;
18162;SDS011;9206;50.994;4.538;2023-03-07T12:37:22;15.37;;;13.57;;
18162;SDS011;9206;50.994;4.538;2023-03-07T12:40:14;13.43;;;12.20;;
18162;SDS011;9206;50.994;4.538;2023-03-07T12:43:13;14.73;;;13.23;;
18162;SDS011;9206;50.994;4.538;2023-03-07T12:46:08;13.57;;;12.37;;
18162;SDS011;9206;50.994;4.538;2023-03-07T12:49:06;13.60;;;12.37;;
18162;SDS011;9206;50.994;4.538;2023-03-07T12:52:05;14.90;;;13.43;;
18162;SDS011;9206;50.994;4.538;2023-03-07T12:55:03;14.43;;;12.93;;
18162;SDS011;9206;50.994;4.538;2023-03-07T12:58:02;15.30;;;13.70;;
18162;SDS011;9206;50.994;4.538;2023-03-07T13:00:53;14.43;;;13.13;;
18162;SDS011;9206;50.994;4.538;2023-03-07T13:03:47;13.50;;;12.30;;
18162;SDS011;9206;50.994;4.538;2023-03-07T13:06:42;13.17;;;11.97;;
18162;SDS011;9206;50.994;4.538;2023-03-07T13:09:34;13.03;;;11.83;;
18162;SDS011;9206;50.994;4.538;2023-03-07T13:18:28;13.07;;;11.77;;
18162;SDS011;9206;50.994;4.538;2023-03-07T13:24:35;10.40;;;9.50;;
18162;SDS011;9206;50.994;4.538;2023-03-07T13:27:26;9.27;;;8.67;;
18162;SDS011;9206;50.994;4.538;2023-03-07T13:30:28;9.73;;;8.93;;
18162;SDS011;9206;50.994;4.538;2023-03-07T13:33:26;11.30;;;8.73;;
18162;SDS011;9206;50.994;4.538;2023-03-07T13:36:32;8.90;;;8.30;;
18162;SDS011;9206;50.994;4.538;2023-03-07T13:42:47;10.07;;;9.27;;
18162;SDS011;9206;50.994;4.538;2023-03-07T13:45:45;8.80;;;8.20;;
18162;SDS011;9206;50.994;4.538;2023-03-07T13:55:39;9.43;;;8.63;;
18162;SDS011;9206;50.994;4.538;2023-03-07T13:58:34;8.60;;;8.00;;
18162;SDS011;9206;50.994;4.538;2023-03-07T14:01:26;7.93;;;7.43;;
18162;SDS011;9206;50.994;4.538;2023-03-07T14:04:19;8.37;;;7.73;;
18162;SDS011;9206;50.994;4.538;2023-03-07T14:07:22;7.00;;;6.60;;
18162;SDS011;9206;50.994;4.538;2023-03-07T14:10:18;7.57;;;7.00;;
18162;SDS011;9206;50.994;4.538;2023-03-07T14:13:23;7.37;;;6.87;;
18162;SDS011;9206;50.994;4.538;2023-03-07T14:16:34;6.40;;;6.10;;
18162;SDS011;9206;50.994;4.538;2023-03-07T14:19:42;6.50;;;6.10;;
18162;SDS011;9206;50.994;4.538;2023-03-07T14:22:46;5.97;;;5.60;;
18162;SDS011;9206;50.994;4.538;2023-03-07T14:25:50;5.73;;;5.33;;
18162;SDS011;9206;50.994;4.538;2023-03-07T14:28:49;5.23;;;4.93;;
18162;SDS011;9206;50.994;4.538;2023-03-07T14:31:47;4.33;;;4.13;;
18162;SDS011;9206;50.994;4.538;2023-03-07T14:34:49;4.13;;;3.93;;
18162;SDS011;9206;50.994;4.538;2023-03-07T14:38:06;4.60;;;4.30;;
18162;SDS011;9206;50.994;4.538;2023-03-07T14:48:17;3.43;;;3.23;;
18162;SDS011;9206;50.994;4.538;2023-03-07T14:51:39;3.03;;;2.93;;
18162;SDS011;9206;50.994;4.538;2023-03-07T14:54:37;2.70;;;2.60;;
18162;SDS011;9206;50.994;4.538;2023-03-07T14:58:01;3.20;;;3.00;;
18162;SDS011;9206;50.994;4.538;2023-03-07T15:00:56;5.00;;;4.60;;
18162;SDS011;9206;50.994;4.538;2023-03-07T15:03:48;5.40;;;4.93;;
18162;SDS011;9206;50.994;4.538;2023-03-07T15:06:41;7.67;;;5.17;;
18162;SDS011;9206;50.994;4.538;2023-03-07T15:09:58;3.00;;;2.90;;
18162;SDS011;9206;50.994;4.538;2023-03-07T15:13:09;2.73;;;2.63;;
18162;SDS011;9206;50.994;4.538;2023-03-07T15:16:16;3.77;;;3.60;;
18162;SDS011;9206;50.994;4.538;2023-03-07T15:19:32;2.90;;;2.70;;
18162;SDS011;9206;50.994;4.538;2023-03-07T15:22:36;2.70;;;2.60;;
18162;SDS011;9206;50.994;4.538;2023-03-07T15:25:24;2.23;;;2.13;;
18162;SDS011;9206;50.994;4.538;2023-03-07T15:28:15;2.50;;;2.40;;
18162;SDS011;9206;50.994;4.538;2023-03-07T15:31:09;2.50;;;2.40;;
18162;SDS011;9206;50.994;4.538;2023-03-07T15:37:23;2.60;;;2.40;;
18162;SDS011;9206;50.994;4.538;2023-03-07T15:40:24;2.50;;;2.40;;
18162;SDS011;9206;50.994;4.538;2023-03-07T15:43:23;2.60;;;2.40;;
18162;SDS011;9206;50.994;4.538;2023-03-07T15:46:15;3.60;;;2.77;;
18162;SDS011;9206;50.994;4.538;2023-03-07T15:49:18;2.43;;;2.33;;
18162;SDS011;9206;50.994;4.538;2023-03-07T15:52:27;3.10;;;2.90;;
18162;SDS011;9206;50.994;4.538;2023-03-07T15:55:19;2.43;;;2.33;;
18162;SDS011;9206;50.994;4.538;2023-03-07T15:58:18;2.50;;;2.40;;
18162;SDS011;9206;50.994;4.538;2023-03-07T16:01:18;2.50;;;2.40;;
18162;SDS011;9206;50.994;4.538;2023-03-07T16:07:23;3.10;;;2.90;;
18162;SDS011;9206;50.994;4.538;2023-03-07T16:10:19;2.40;;;2.30;;
18162;SDS011;9206;50.994;4.538;2023-03-07T16:17:02;3.73;;;3.53;;
18162;SDS011;9206;50.994;4.538;2023-03-07T16:20:03;3.57;;;3.37;;
18162;SDS011;9206;50.994;4.538;2023-03-07T16:23:07;4.10;;;3.57;;
18162;SDS011;9206;50.994;4.538;2023-03-07T16:26:04;3.70;;;3.40;;
18162;SDS011;9206;50.994;4.538;2023-03-07T16:28:52;4.17;;;3.77;;
18162;SDS011;9206;50.994;4.538;2023-03-07T16:31:42;3.13;;;2.93;;
18162;SDS011;9206;50.994;4.538;2023-03-07T16:34:31;3.00;;;2.90;;
18162;SDS011;9206;50.994;4.538;2023-03-07T16:37:23;3.10;;;2.90;;
18162;SDS011;9206;50.994;4.538;2023-03-07T16:40:18;3.40;;;3.20;;
18162;SDS011;9206;50.994;4.538;2023-03-07T16:43:17;3.37;;;3.07;;
18162;SDS011;9206;50.994;4.538;2023-03-07T16:49:10;3.40;;;3.20;;
18162;SDS011;9206;50.994;4.538;2023-03-07T16:55:04;3.90;;;3.70;;
18162;SDS011;9206;50.994;4.538;2023-03-07T16:57:57;5.37;;;5.00;;
18162;SDS011;9206;50.994;4.538;2023-03-07T17:00:50;8.73;;;8.10;;
18162;SDS011;9206;50.994;4.538;2023-03-07T17:03:40;7.97;;;7.43;;
18162;SDS011;9206;50.994;4.538;2023-03-07T17:06:46;8.53;;;7.93;;
18162;SDS011;9206;50.994;4.538;2023-03-07T17:09:36;7.70;;;7.20;;
18162;SDS011;9206;50.994;4.538;2023-03-07T17:12:26;8.10;;;7.50;;
18162;SDS011;9206;50.994;4.538;2023-03-07T17:15:18;8.30;;;7.60;;
18162;SDS011;9206;50.994;4.538;2023-03-07T17:18:10;9.13;;;8.47;;
18162;SDS011;9206;50.994;4.538;2023-03-07T17:20:59;8.67;;;8.07;;
18162;SDS011;9206;50.994;4.538;2023-03-07T17:26:48;11.73;;;10.50;;
18162;SDS011;9206;50.994;4.538;2023-03-07T17:29:40;18.10;;;12.47;;
18162;SDS011;9206;50.994;4.538;2023-03-07T17:32:36;13.40;;;10.67;;
18162;SDS011;9206;50.994;4.538;2023-03-07T17:35:27;11.37;;;9.30;;
18162;SDS011;9206;50.994;4.538;2023-03-07T17:38:15;10.07;;;9.17;;
18162;SDS011;9206;50.994;4.538;2023-03-07T17:41:08;9.47;;;8.77;;
18162;SDS011;9206;50.994;4.538;2023-03-07T17:43:58;9.03;;;8.43;;
18162;SDS011;9206;50.994;4.538;2023-03-07T17:46:47;8.20;;;7.70;;
18162;SDS011;9206;50.994;4.538;2023-03-07T17:49:36;9.00;;;8.30;;
18162;SDS011;9206;50.994;4.538;2023-03-07T17:52:27;10.53;;;9.60;;
18162;SDS011;9206;50.994;4.538;2023-03-07T17:55:16;10.80;;;10.00;;
18162;SDS011;9206;50.994;4.538;2023-03-07T17:58:07;12.67;;;11.50;;
18162;SDS011;9206;50.994;4.538;2023-03-07T18:00:55;11.53;;;10.53;;
18162;SDS011;9206;50.994;4.538;2023-03-07T18:03:48;11.10;;;10.20;;
18162;SDS011;9206;50.994;4.538;2023-03-07T18:06:38;12.60;;;11.10;;
18162;SDS011;9206;50.994;4.538;2023-03-07T18:09:25;7.33;;;6.83;;
18162;SDS011;9206;50.994;4.538;2023-03-07T18:12:12;5.87;;;5.47;;
18162;SDS011;9206;50.994;4.538;2023-03-07T18:15:00;4.30;;;4.10;;
18162;SDS011;9206;50.994;4.538;2023-03-07T18:17:50;5.10;;;4.80;;
18162;SDS011;9206;50.994;4.538;2023-03-07T18:20:40;5.30;;;5.00;;
18162;SDS011;9206;50.994;4.538;2023-03-07T18:23:30;6.43;;;5.90;;
18162;SDS011;9206;50.994;4.538;2023-03-07T18:26:18;6.10;;;5.60;;
18162;SDS011;9206;50.994;4.538;2023-03-07T18:29:12;6.33;;;5.93;;
18162;SDS011;9206;50.994;4.538;2023-03-07T18:32:01;6.27;;;5.70;;
18162;SDS011;9206;50.994;4.538;2023-03-07T18:34:54;6.57;;;6.07;;
18162;SDS011;9206;50.994;4.538;2023-03-07T18:37:42;8.27;;;7.50;;
18162;SDS011;9206;50.994;4.538;2023-03-07T18:43:27;8.53;;;7.83;;
18162;SDS011;9206;50.994;4.538;2023-03-07T18:46:20;8.50;;;7.80;;
18162;SDS011;9206;50.994;4.538;2023-03-07T18:49:09;8.00;;;7.40;;
18162;SDS011;9206;50.994;4.538;2023-03-07T18:51:56;7.27;;;6.87;;
18162;SDS011;9206;50.994;4.538;2023-03-07T18:54:47;7.10;;;6.67;;
18162;SDS011;9206;50.994;4.538;2023-03-07T18:57:42;8.23;;;7.53;;
18162;SDS011;9206;50.994;4.538;2023-03-07T19:00:36;8.00;;;7.33;;
18162;SDS011;9206;50.994;4.538;2023-03-07T19:06:16;8.67;;;8.07;;
18162;SDS011;9206;50.994;4.538;2023-03-07T19:09:07;8.83;;;8.03;;
18162;SDS011;9206;50.994;4.538;2023-03-07T19:12:03;7.30;;;6.80;;
18162;SDS011;9206;50.994;4.538;2023-03-07T19:14:54;8.03;;;7.53;;
18162;SDS011;9206;50.994;4.538;2023-03-07T19:17:46;8.50;;;7.50;;
18162;SDS011;9206;50.994;4.538;2023-03-07T19:20:38;8.27;;;7.70;;
18162;SDS011;9206;50.994;4.538;2023-03-07T19:23:31;8.20;;;7.60;;
18162;SDS011;9206;50.994;4.538;2023-03-07T19:26:21;8.07;;;7.40;;
18162;SDS011;9206;50.994;4.538;2023-03-07T19:29:08;9.10;;;7.70;;
18162;SDS011;9206;50.994;4.538;2023-03-07T19:32:02;9.33;;;8.53;;
18162;SDS011;9206;50.994;4.538;2023-03-07T19:35:00;8.70;;;7.87;;
18162;SDS011;9206;50.994;4.538;2023-03-07T19:37:48;8.77;;;8.07;;
18162;SDS011;9206;50.994;4.538;2023-03-07T19:40:35;7.70;;;7.10;;
18162;SDS011;9206;50.994;4.538;2023-03-07T19:43:22;7.70;;;7.00;;
18162;SDS011;9206;50.994;4.538;2023-03-07T19:46:11;7.60;;;7.10;;
18162;SDS011;9206;50.994;4.538;2023-03-07T19:49:01;7.00;;;6.57;;
18162;SDS011;9206;50.994;4.538;2023-03-07T19:51:50;7.17;;;6.73;;
18162;SDS011;9206;50.994;4.538;2023-03-07T19:54:38;7.67;;;6.97;;
18162;SDS011;9206;50.994;4.538;2023-03-07T19:57:33;6.90;;;6.23;;